sensor_id;sensor_type;location;lat;lon;timestamp;pressure;altitude;pressure_sealevel;temperature;humidity
10587;BME280;5341;47.606;7.576;2023-03-05T00:00:54;99196.81;;;6.53;51.47
10587;BME280;5341;47.606;7.576;2023-03-05T00:03:22;99188.00;;;6.52;51.41
10587;BME280;5341;47.606;7.576;2023-03-05T00:05:55;99189.81;;;6.52;51.04
10587;BME280;5341;47.606;7.576;2023-03-05T00:08:22;99199.59;;;6.51;51.46
10587;BME280;5341;47.606;7.576;2023-03-05T00:10:55;99205.06;;;6.50;51.07
10587;BME280;5341;47.606;7.576;2023-03-05T00:13:24;99202.41;;;6.50;51.76
10587;BME280;5341;47.606;7.576;2023-03-05T00:15:51;99193.75;;;6.47;51.38
10587;BME280;5341;47.606;7.576;2023-03-05T00:18:20;99201.03;;;6.45;51.31
10587;BME280;5341;47.606;7.576;2023-03-05T00:20:48;99199.53;;;6.43;51.07
10587;BME280;5341;47.606;7.576;2023-03-05T00:23:15;99196.16;;;6.41;51.00
10587;BME280;5341;47.606;7.576;2023-03-05T00:25:43;99197.97;;;6.40;51.13
10587;BME280;5341;47.606;7.576;2023-03-05T00:28:11;99191.13;;;6.38;51.17
10587;BME280;5341;47.606;7.576;2023-03-05T00:30:40;99193.78;;;6.38;51.32
10587;BME280;5341;47.606;7.576;2023-03-05T00:33:11;99193.09;;;6.36;51.49
10587;BME280;5341;47.606;7.576;2023-03-05T00:35:39;99191.44;;;6.35;51.58
10587;BME280;5341;47.606;7.576;2023-03-05T00:38:08;99191.56;;;6.33;51.30
10587;BME280;5341;47.606;7.576;2023-03-05T00:40:36;99189.06;;;6.32;51.46
10587;BME280;5341;47.606;7.576;2023-03-05T00:43:04;99185.69;;;6.30;51.44
10587;BME280;5341;47.606;7.576;2023-03-05T00:45:33;99177.88;;;6.28;51.41
10587;BME280;5341;47.606;7.576;2023-03-05T00:48:03;99178.03;;;6.27;51.30
10587;BME280;5341;47.606;7.576;2023-03-05T00:50:32;99171.03;;;6.26;51.14
10587;BME280;5341;47.606;7.576;2023-03-05T00:53:11;99169.50;;;6.23;51.43
10587;BME280;5341;47.606;7.576;2023-03-05T00:55:39;99169.66;;;6.22;51.27
10587;BME280;5341;47.606;7.576;2023-03-05T00:58:07;99161.84;;;6.20;51.15
10587;BME280;5341;47.606;7.576;2023-03-05T01:00:45;99163.66;;;6.20;51.51
10587;BME280;5341;47.606;7.576;2023-03-05T01:03:26;99161.16;;;6.18;51.41
10587;BME280;5341;47.606;7.576;2023-03-05T01:06:03;99149.81;;;6.16;51.14
10587;BME280;5341;47.606;7.576;2023-03-05T01:08:31;99155.44;;;6.13;51.16
10587;BME280;5341;47.606;7.576;2023-03-05T01:10:59;99146.78;;;6.11;51.08
10587;BME280;5341;47.606;7.576;2023-03-05T01:13:27;99148.59;;;6.10;51.11
10587;BME280;5341;47.606;7.576;2023-03-05T01:15:56;99144.25;;;6.09;51.34
10587;BME280;5341;47.606;7.576;2023-03-05T01:18:23;99130.31;;;6.07;51.19
10587;BME280;5341;47.606;7.576;2023-03-05T01:29:03;99130.03;;;6.01;51.04
10587;BME280;5341;47.606;7.576;2023-03-05T01:31:31;99138.13;;;5.99;51.60
10587;BME280;5341;47.606;7.576;2023-03-05T01:39:34;99117.47;;;5.93;51.66
10587;BME280;5341;47.606;7.576;2023-03-05T01:42:08;99122.09;;;5.91;51.83
10587;BME280;5341;47.606;7.576;2023-03-05T01:45:03;99117.75;;;5.90;51.51
10587;BME280;5341;47.606;7.576;2023-03-05T01:47:35;99118.03;;;5.87;51.33
10587;BME280;5341;47.606;7.576;2023-03-05T01:50:17;99116.34;;;5.86;50.99
10587;BME280;5341;47.606;7.576;2023-03-05T01:52:49;99107.69;;;5.84;51.63
10587;BME280;5341;47.606;7.576;2023-03-05T01:55:20;99108.69;;;5.83;51.54
10587;BME280;5341;47.606;7.576;2023-03-05T01:57:51;99104.38;;;5.82;51.58
10587;BME280;5341;47.606;7.576;2023-03-05T02:00:25;99107.13;;;5.80;51.13
10587;BME280;5341;47.606;7.576;2023-03-05T02:05:22;99100.28;;;5.78;51.64
10587;BME280;5341;47.606;7.576;2023-03-05T02:10:27;99096.81;;;5.77;51.23
10587;BME280;5341;47.606;7.576;2023-03-05T02:20:18;99092.94;;;5.72;51.24
10587;BME280;5341;47.606;7.576;2023-03-05T02:22:47;99094.75;;;5.71;51.40
10587;BME280;5341;47.606;7.576;2023-03-05T02:25:18;99087.78;;;5.70;51.46
10587;BME280;5341;47.606;7.576;2023-03-05T02:27:51;99082.56;;;5.69;51.73
10587;BME280;5341;47.606;7.576;2023-03-05T02:30:23;99082.72;;;5.67;51.82
10587;BME280;5341;47.606;7.576;2023-03-05T02:35:32;99077.56;;;5.66;51.14
10587;BME280;5341;47.606;7.576;2023-03-05T02:40:38;99076.72;;;5.65;51.78
10587;BME280;5341;47.606;7.576;2023-03-05T02:43:05;99075.91;;;5.65;51.37
10587;BME280;5341;47.606;7.576;2023-03-05T02:45:33;99079.38;;;5.65;51.22
10587;BME280;5341;47.606;7.576;2023-03-05T02:48:01;99067.09;;;5.64;51.86
10587;BME280;5341;47.606;7.576;2023-03-05T02:50:28;99075.91;;;5.65;52.09
10587;BME280;5341;47.606;7.576;2023-03-05T02:52:57;99073.25;;;5.65;51.89
10587;BME280;5341;47.606;7.576;2023-03-05T02:55:24;99067.09;;;5.64;51.96
10587;BME280;5341;47.606;7.576;2023-03-05T02:57:54;99062.78;;;5.63;51.46
10587;BME280;5341;47.606;7.576;2023-03-05T03:00:21;99063.63;;;5.64;51.53
10587;BME280;5341;47.606;7.576;2023-03-05T03:02:49;99063.63;;;5.64;51.73
10587;BME280;5341;47.606;7.576;2023-03-05T03:05:16;99064.44;;;5.64;51.89
10587;BME280;5341;47.606;7.576;2023-03-05T03:07:44;99061.94;;;5.63;51.50
10587;BME280;5341;47.606;7.576;2023-03-05T03:10:11;99057.47;;;5.63;51.41
10587;BME280;5341;47.606;7.576;2023-03-05T03:12:40;99056.63;;;5.63;51.66
10587;BME280;5341;47.606;7.576;2023-03-05T03:15:12;99047.84;;;5.62;52.04
10587;BME280;5341;47.606;7.576;2023-03-05T03:17:39;99045.03;;;5.64;52.21
10587;BME280;5341;47.606;7.576;2023-03-05T03:20:09;99050.34;;;5.64;51.76
10587;BME280;5341;47.606;7.576;2023-03-05T03:22:39;99050.34;;;5.64;52.04
10587;BME280;5341;47.606;7.576;2023-03-05T03:25:07;99047.69;;;5.64;51.93
10587;BME280;5341;47.606;7.576;2023-03-05T03:27:35;99038.91;;;5.63;52.03
10587;BME280;5341;47.606;7.576;2023-03-05T03:30:03;99032.75;;;5.63;51.79
10587;BME280;5341;47.606;7.576;2023-03-05T03:32:32;99030.94;;;5.63;52.21
10587;BME280;5341;47.606;7.576;2023-03-05T03:35:00;99035.41;;;5.63;52.10
10587;BME280;5341;47.606;7.576;2023-03-05T03:37:28;99032.75;;;5.63;51.74
10587;BME280;5341;47.606;7.576;2023-03-05T03:39:56;99026.63;;;5.62;52.07
10587;BME280;5341;47.606;7.576;2023-03-05T03:42:24;99019.50;;;5.63;51.83
10587;BME280;5341;47.606;7.576;2023-03-05T03:44:51;99013.34;;;5.62;52.32
10587;BME280;5341;47.606;7.576;2023-03-05T03:47:19;99008.03;;;5.62;51.77
10587;BME280;5341;47.606;7.576;2023-03-05T03:49:52;99012.53;;;5.62;51.86
10587;BME280;5341;47.606;7.576;2023-03-05T03:52:19;99007.34;;;5.60;51.63
10587;BME280;5341;47.606;7.576;2023-03-05T03:54:48;99005.69;;;5.59;52.18
10587;BME280;5341;47.606;7.576;2023-03-05T03:57:17;99004.03;;;5.58;51.84
10587;BME280;5341;47.606;7.576;2023-03-05T03:59:44;99012.81;;;5.58;51.97
10587;BME280;5341;47.606;7.576;2023-03-05T04:02:14;99004.97;;;5.57;51.92
10587;BME280;5341;47.606;7.576;2023-03-05T04:04:41;99001.50;;;5.56;51.92
10587;BME280;5341;47.606;7.576;2023-03-05T04:07:11;99000.66;;;5.56;52.04
10587;BME280;5341;47.606;7.576;2023-03-05T04:09:39;99004.28;;;5.55;52.21
10587;BME280;5341;47.606;7.576;2023-03-05T04:12:07;99003.44;;;5.54;51.63
10587;BME280;5341;47.606;7.576;2023-03-05T04:14:34;99007.91;;;5.54;52.17
10587;BME280;5341;47.606;7.576;2023-03-05T04:17:02;99002.91;;;5.51;52.07
10587;BME280;5341;47.606;7.576;2023-03-05T04:19:29;99004.88;;;5.49;51.68
10587;BME280;5341;47.606;7.576;2023-03-05T04:21:57;99012.16;;;5.47;51.95
10587;BME280;5341;47.606;7.576;2023-03-05T04:24:25;99013.25;;;5.44;51.71
10587;BME280;5341;47.606;7.576;2023-03-05T04:26:55;99006.41;;;5.42;51.85
10587;BME280;5341;47.606;7.576;2023-03-05T04:29:22;99012.84;;;5.39;52.19
10587;BME280;5341;47.606;7.576;2023-03-05T04:31:50;99004.22;;;5.37;51.76
10587;BME280;5341;47.606;7.576;2023-03-05T04:34:17;99002.53;;;5.36;51.56
10587;BME280;5341;47.606;7.576;2023-03-05T04:36:45;99007.16;;;5.34;51.53
10587;BME280;5341;47.606;7.576;2023-03-05T04:39:12;99006.44;;;5.32;52.16
10587;BME280;5341;47.606;7.576;2023-03-05T04:41:42;99005.59;;;5.32;51.95
10587;BME280;5341;47.606;7.576;2023-03-05T04:44:10;99005.75;;;5.30;51.50
10587;BME280;5341;47.606;7.576;2023-03-05T04:46:38;98990.13;;;5.27;51.77
10587;BME280;5341;47.606;7.576;2023-03-05T04:49:05;98999.22;;;5.24;52.09
10587;BME280;5341;47.606;7.576;2023-03-05T04:51:32;98993.91;;;5.24;52.18
10587;BME280;5341;47.606;7.576;2023-03-05T04:54:00;98991.41;;;5.23;51.39
10587;BME280;5341;47.606;7.576;2023-03-05T04:56:27;98990.72;;;5.21;52.03
10587;BME280;5341;47.606;7.576;2023-03-05T04:58:56;98984.69;;;5.19;51.82
10587;BME280;5341;47.606;7.576;2023-03-05T05:01:24;98983.19;;;5.16;51.86
10587;BME280;5341;47.606;7.576;2023-03-05T05:03:52;98973.56;;;5.15;51.54
10587;BME280;5341;47.606;7.576;2023-03-05T05:06:19;98971.03;;;5.14;51.97
10587;BME280;5341;47.606;7.576;2023-03-05T05:08:47;98974.53;;;5.14;52.15
10587;BME280;5341;47.606;7.576;2023-03-05T05:11:15;98971.19;;;5.12;51.99
10587;BME280;5341;47.606;7.576;2023-03-05T05:13:42;98967.84;;;5.10;51.98
10587;BME280;5341;47.606;7.576;2023-03-05T05:16:12;98969.66;;;5.10;51.42
10587;BME280;5341;47.606;7.576;2023-03-05T05:18:42;98971.59;;;5.08;51.76
10587;BME280;5341;47.606;7.576;2023-03-05T05:21:11;98968.94;;;5.08;51.96
10587;BME280;5341;47.606;7.576;2023-03-05T05:23:39;98967.44;;;5.05;52.23
10587;BME280;5341;47.606;7.576;2023-03-05T05:26:09;98965.75;;;5.04;51.72
10587;BME280;5341;47.606;7.576;2023-03-05T05:28:40;98962.41;;;5.02;51.37
10587;BME280;5341;47.606;7.576;2023-03-05T05:31:13;98967.03;;;5.00;51.56
10587;BME280;5341;47.606;7.576;2023-03-05T05:33:41;98966.19;;;4.99;51.58
10587;BME280;5341;47.606;7.576;2023-03-05T05:36:14;98972.63;;;4.97;51.80
10587;BME280;5341;47.606;7.576;2023-03-05T05:38:42;98964.78;;;4.95;52.03
10587;BME280;5341;47.606;7.576;2023-03-05T05:41:14;98963.13;;;4.94;51.81
10587;BME280;5341;47.606;7.576;2023-03-05T05:43:45;98964.09;;;4.93;51.81
10587;BME280;5341;47.606;7.576;2023-03-05T05:46:17;98963.25;;;4.93;51.83
10587;BME280;5341;47.606;7.576;2023-03-05T05:48:45;98958.09;;;4.91;51.62
10587;BME280;5341;47.606;7.576;2023-03-05T05:51:16;98955.47;;;4.91;51.66
10587;BME280;5341;47.606;7.576;2023-03-05T05:53:44;98959.09;;;4.90;52.08
10587;BME280;5341;47.606;7.576;2023-03-05T05:56:13;98953.09;;;4.88;51.88
10587;BME280;5341;47.606;7.576;2023-03-05T05:58:43;98953.94;;;4.89;51.29
10587;BME280;5341;47.606;7.576;2023-03-05T06:01:16;98952.41;;;4.86;51.63
10587;BME280;5341;47.606;7.576;2023-03-05T06:03:44;98950.75;;;4.85;51.51
10587;BME280;5341;47.606;7.576;2023-03-05T06:06:13;98950.00;;;4.83;51.96
10587;BME280;5341;47.606;7.576;2023-03-05T06:08:41;98944.84;;;4.82;51.37
10587;BME280;5341;47.606;7.576;2023-03-05T06:11:09;98944.84;;;4.82;51.65
10587;BME280;5341;47.606;7.576;2023-03-05T06:13:36;98937.91;;;4.81;51.96
10587;BME280;5341;47.606;7.576;2023-03-05T06:16:06;98935.38;;;4.79;51.77
10587;BME280;5341;47.606;7.576;2023-03-05T06:18:37;98934.56;;;4.79;51.37
10587;BME280;5341;47.606;7.576;2023-03-05T06:21:07;98936.38;;;4.78;51.66
10587;BME280;5341;47.606;7.576;2023-03-05T06:23:35;98937.34;;;4.77;51.50
10587;BME280;5341;47.606;7.576;2023-03-05T06:26:05;98940.00;;;4.77;52.05
10587;BME280;5341;47.606;7.576;2023-03-05T06:28:33;98937.50;;;4.76;51.93
10587;BME280;5341;47.606;7.576;2023-03-05T06:31:01;98932.19;;;4.76;51.60
10587;BME280;5341;47.606;7.576;2023-03-05T06:33:30;98941.13;;;4.75;51.36
10587;BME280;5341;47.606;7.576;2023-03-05T06:36:01;98935.81;;;4.75;51.80
10587;BME280;5341;47.606;7.576;2023-03-05T06:38:28;98942.09;;;4.74;51.64
10587;BME280;5341;47.606;7.576;2023-03-05T06:40:59;98943.78;;;4.75;51.61
10587;BME280;5341;47.606;7.576;2023-03-05T06:43:27;98943.09;;;4.73;51.61
10587;BME280;5341;47.606;7.576;2023-03-05T06:46:01;98943.91;;;4.73;51.87
10587;BME280;5341;47.606;7.576;2023-03-05T06:48:29;98947.50;;;4.72;51.47
10587;BME280;5341;47.606;7.576;2023-03-05T06:50:58;98950.16;;;4.72;51.66
10587;BME280;5341;47.606;7.576;2023-03-05T06:53:26;98948.50;;;4.71;51.29
10587;BME280;5341;47.606;7.576;2023-03-05T06:55:54;98949.31;;;4.71;51.51
10587;BME280;5341;47.606;7.576;2023-03-05T06:58:21;98948.50;;;4.71;51.26
10587;BME280;5341;47.606;7.576;2023-03-05T07:00:49;98938.72;;;4.71;51.75
10587;BME280;5341;47.606;7.576;2023-03-05T07:03:17;98943.09;;;4.73;51.59
10587;BME280;5341;47.606;7.576;2023-03-05T07:05:45;98939.44;;;4.74;51.55
10587;BME280;5341;47.606;7.576;2023-03-05T07:08:14;98933.31;;;4.73;51.69
10587;BME280;5341;47.606;7.576;2023-03-05T07:10:42;98935.00;;;4.74;51.70
10587;BME280;5341;47.606;7.576;2023-03-05T07:13:10;98936.66;;;4.75;51.55
10587;BME280;5341;47.606;7.576;2023-03-05T07:15:38;98932.06;;;4.77;51.37
10587;BME280;5341;47.606;7.576;2023-03-05T07:18:06;98935.53;;;4.78;51.67
10587;BME280;5341;47.606;7.576;2023-03-05T07:20:34;98937.06;;;4.80;51.52
10587;BME280;5341;47.606;7.576;2023-03-05T07:23:01;98935.09;;;4.82;51.63
10587;BME280;5341;47.606;7.576;2023-03-05T07:25:31;98934.97;;;4.84;52.00
10587;BME280;5341;47.606;7.576;2023-03-05T07:27:59;98929.41;;;4.87;52.21
10587;BME280;5341;47.606;7.576;2023-03-05T07:30:27;98933.72;;;4.88;52.09
10587;BME280;5341;47.606;7.576;2023-03-05T07:32:54;98934.41;;;4.90;52.13
10587;BME280;5341;47.606;7.576;2023-03-05T07:35:25;98944.03;;;4.91;51.54
10587;BME280;5341;47.606;7.576;2023-03-05T07:37:59;98927.84;;;4.94;51.54
10587;BME280;5341;47.606;7.576;2023-03-05T07:40:27;98938.28;;;4.95;51.49
10587;BME280;5341;47.606;7.576;2023-03-05T07:42:56;98937.31;;;4.96;51.76
10587;BME280;5341;47.606;7.576;2023-03-05T07:45:29;98937.88;;;5.00;52.16
10587;BME280;5341;47.606;7.576;2023-03-05T07:47:57;98937.72;;;5.02;51.51
10587;BME280;5341;47.606;7.576;2023-03-05T07:50:24;98936.59;;;5.04;51.68
10587;BME280;5341;47.606;7.576;2023-03-05T07:52:52;98938.97;;;5.07;52.20
10587;BME280;5341;47.606;7.576;2023-03-05T07:55:21;98928.94;;;5.11;52.13
10587;BME280;5341;47.606;7.576;2023-03-05T07:57:51;98928.63;;;5.14;52.24
10587;BME280;5341;47.606;7.576;2023-03-05T08:00:20;98927.34;;;5.18;52.30
10587;BME280;5341;47.606;7.576;2023-03-05T08:02:48;98926.09;;;5.22;51.55
10587;BME280;5341;47.606;7.576;2023-03-05T08:05:16;98926.50;;;5.27;52.13
10587;BME280;5341;47.606;7.576;2023-03-05T08:07:47;98922.41;;;5.33;52.06
10587;BME280;5341;47.606;7.576;2023-03-05T08:10:15;98919.34;;;5.37;52.09
10587;BME280;5341;47.606;7.576;2023-03-05T08:12:44;98912.75;;;5.41;52.41
10587;BME280;5341;47.606;7.576;2023-03-05T08:15:12;98913.19;;;5.46;52.22
10587;BME280;5341;47.606;7.576;2023-03-05T08:17:43;98915.25;;;5.52;52.18
10587;BME280;5341;47.606;7.576;2023-03-05T08:20:12;98913.69;;;5.59;52.76
10587;BME280;5341;47.606;7.576;2023-03-05T08:22:40;98908.59;;;5.66;52.78
10587;BME280;5341;47.606;7.576;2023-03-05T08:25:08;98909.53;;;5.75;52.20
10587;BME280;5341;47.606;7.576;2023-03-05T08:27:38;98900.03;;;5.82;52.22
10587;BME280;5341;47.606;7.576;2023-03-05T08:30:07;98902.06;;;5.88;52.41
10587;BME280;5341;47.606;7.576;2023-03-05T08:32:36;98889.09;;;5.95;52.63
10587;BME280;5341;47.606;7.576;2023-03-05T08:35:08;98890.13;;;6.02;52.20
10587;BME280;5341;47.606;7.576;2023-03-05T08:37:36;98891.06;;;6.10;52.37
10587;BME280;5341;47.606;7.576;2023-03-05T08:40:04;98897.41;;;6.17;52.14
10587;BME280;5341;47.606;7.576;2023-03-05T08:42:33;98892.88;;;6.28;52.14
10587;BME280;5341;47.606;7.576;2023-03-05T08:45:01;98894.78;;;6.35;52.36
10587;BME280;5341;47.606;7.576;2023-03-05T08:47:28;98889.69;;;6.42;52.68
10587;BME280;5341;47.606;7.576;2023-03-05T08:49:56;98884.28;;;6.52;52.39
10587;BME280;5341;47.606;7.576;2023-03-05T08:52:25;98883.53;;;6.59;52.66
10587;BME280;5341;47.606;7.576;2023-03-05T08:54:53;98880.94;;;6.67;52.20
10587;BME280;5341;47.606;7.576;2023-03-05T08:57:20;98878.34;;;6.75;52.33
10587;BME280;5341;47.606;7.576;2023-03-05T08:59:50;98877.56;;;6.83;52.38
10587;BME280;5341;47.606;7.576;2023-03-05T09:02:18;98880.28;;;6.91;52.32
10587;BME280;5341;47.606;7.576;2023-03-05T09:04:47;98881.31;;;6.98;52.46
10587;BME280;5341;47.606;7.576;2023-03-05T09:07:17;98875.75;;;7.10;52.47
10587;BME280;5341;47.606;7.576;2023-03-05T09:09:48;98868.50;;;7.20;52.53
10587;BME280;5341;47.606;7.576;2023-03-05T09:12:15;98865.72;;;7.29;52.10
10587;BME280;5341;47.606;7.576;2023-03-05T09:14:43;98862.25;;;7.37;52.22
10587;BME280;5341;47.606;7.576;2023-03-05T09:17:10;98859.97;;;7.42;52.01
10587;BME280;5341;47.606;7.576;2023-03-05T09:19:37;98860.66;;;7.52;52.25
10587;BME280;5341;47.606;7.576;2023-03-05T09:22:05;98849.75;;;7.63;52.07
10587;BME280;5341;47.606;7.576;2023-03-05T09:24:32;98853.78;;;7.76;51.89
10587;BME280;5341;47.606;7.576;2023-03-05T09:27:02;98848.13;;;7.87;51.93
10587;BME280;5341;47.606;7.576;2023-03-05T09:29:31;98847.81;;;7.98;51.78
10587;BME280;5341;47.606;7.576;2023-03-05T09:31:59;98843.16;;;8.08;51.83
10587;BME280;5341;47.606;7.576;2023-03-05T09:34:27;98841.03;;;8.20;51.58
10587;BME280;5341;47.606;7.576;2023-03-05T09:36:54;98840.53;;;8.33;51.11
10587;BME280;5341;47.606;7.576;2023-03-05T09:39:21;98842.25;;;8.42;51.09
10587;BME280;5341;47.606;7.576;2023-03-05T09:42:06;98832.91;;;8.54;51.15
10587;BME280;5341;47.606;7.576;2023-03-05T09:44:43;98830.72;;;8.66;50.94
10587;BME280;5341;47.606;7.576;2023-03-05T09:47:26;98818.91;;;8.76;50.85
10587;BME280;5341;47.606;7.576;2023-03-05T09:49:58;98819.84;;;8.84;50.78
10587;BME280;5341;47.606;7.576;2023-03-05T09:52:35;98817.38;;;8.90;50.95
10587;BME280;5341;47.606;7.576;2023-03-05T09:55:11;98818.03;;;8.92;50.83
10587;BME280;5341;47.606;7.576;2023-03-05T09:57:43;98815.53;;;8.99;50.80
10587;BME280;5341;47.606;7.576;2023-03-05T10:00:24;98814.31;;;9.09;50.80
10587;BME280;5341;47.606;7.576;2023-03-05T10:02:55;98812.78;;;9.15;50.72
10587;BME280;5341;47.606;7.576;2023-03-05T10:05:35;98806.28;;;9.18;50.75
10587;BME280;5341;47.606;7.576;2023-03-05T10:08:11;98812.78;;;9.23;50.70
10587;BME280;5341;47.606;7.576;2023-03-05T10:10:42;98810.09;;;9.23;50.58
10587;BME280;5341;47.606;7.576;2023-03-05T10:13:17;98803.59;;;9.18;50.50
10587;BME280;5341;47.606;7.576;2023-03-05T10:15:52;98798.63;;;9.15;50.82
10587;BME280;5341;47.606;7.576;2023-03-05T10:18:29;98795.47;;;9.11;50.89
10587;BME280;5341;47.606;7.576;2023-03-05T10:21:03;98805.50;;;9.09;50.74
10587;BME280;5341;47.606;7.576;2023-03-05T10:23:43;98801.66;;;9.03;50.78
10587;BME280;5341;47.606;7.576;2023-03-05T10:26:34;98794.31;;;9.05;51.39
10587;BME280;5341;47.606;7.576;2023-03-05T10:29:17;98800.47;;;9.14;51.83
10587;BME280;5341;47.606;7.576;2023-03-05T10:31:58;98794.28;;;9.22;51.18
10587;BME280;5341;47.606;7.576;2023-03-05T10:34:45;98791.38;;;9.31;51.42
10587;BME280;5341;47.606;7.576;2023-03-05T10:40:23;98783.94;;;9.58;51.35
10587;BME280;5341;47.606;7.576;2023-03-05T10:42:57;98778.34;;;9.67;50.24
10587;BME280;5341;47.606;7.576;2023-03-05T10:45:34;98777.47;;;9.75;50.27
10587;BME280;5341;47.606;7.576;2023-03-05T10:48:10;98775.59;;;9.84;50.58
10587;BME280;5341;47.606;7.576;2023-03-05T10:50:41;98764.78;;;10.00;49.78
10587;BME280;5341;47.606;7.576;2023-03-05T10:53:16;98768.16;;;10.17;50.11
10587;BME280;5341;47.606;7.576;2023-03-05T10:55:46;98764.25;;;10.27;50.33
10587;BME280;5341;47.606;7.576;2023-03-05T10:58:16;98763.53;;;10.34;49.00
10587;BME280;5341;47.606;7.576;2023-03-05T11:01:03;98768.72;;;10.35;49.35
10587;BME280;5341;47.606;7.576;2023-03-05T11:03:56;98750.66;;;10.37;49.40
10587;BME280;5341;47.606;7.576;2023-03-05T11:06:35;98751.28;;;10.39;49.78
10587;BME280;5341;47.606;7.576;2023-03-05T11:09:21;98746.59;;;10.41;48.93
10587;BME280;5341;47.606;7.576;2023-03-05T11:12:13;98746.59;;;10.41;49.08
10587;BME280;5341;47.606;7.576;2023-03-05T11:14:44;98741.91;;;10.43;49.06
10587;BME280;5341;47.606;7.576;2023-03-05T11:17:30;98743.00;;;10.49;49.44
10587;BME280;5341;47.606;7.576;2023-03-05T11:20:26;98739.06;;;10.60;49.46
10587;BME280;5341;47.606;7.576;2023-03-05T11:23:07;98732.63;;;10.69;49.09
10587;BME280;5341;47.606;7.576;2023-03-05T11:25:56;98727.72;;;10.72;47.97
10587;BME280;5341;47.606;7.576;2023-03-05T11:28:28;98727.16;;;10.77;49.05
10587;BME280;5341;47.606;7.576;2023-03-05T11:31:00;98720.16;;;10.76;47.84
10587;BME280;5341;47.606;7.576;2023-03-05T11:33:30;98712.44;;;10.81;49.21
10587;BME280;5341;47.606;7.576;2023-03-05T11:36:25;98710.66;;;10.88;47.79
10587;BME280;5341;47.606;7.576;2023-03-05T11:38:55;98710.66;;;10.88;47.15
10587;BME280;5341;47.606;7.576;2023-03-05T11:41:29;98702.09;;;10.93;47.64
10587;BME280;5341;47.606;7.576;2023-03-05T11:44:00;98698.41;;;10.94;47.74
10587;BME280;5341;47.606;7.576;2023-03-05T11:46:37;98694.13;;;10.99;47.63
10587;BME280;5341;47.606;7.576;2023-03-05T11:49:11;98691.09;;;11.02;47.51
10587;BME280;5341;47.606;7.576;2023-03-05T11:51:44;98678.63;;;11.09;48.17
10587;BME280;5341;47.606;7.576;2023-03-05T11:54:20;98672.78;;;11.21;49.01
10587;BME280;5341;47.606;7.576;2023-03-05T11:56:50;98670.44;;;11.32;48.12
10587;BME280;5341;47.606;7.576;2023-03-05T11:59:20;98670.53;;;11.39;47.46
10587;BME280;5341;47.606;7.576;2023-03-05T12:01:52;98664.16;;;11.40;47.97
10587;BME280;5341;47.606;7.576;2023-03-05T12:04:22;98665.44;;;11.44;47.33
10587;BME280;5341;47.606;7.576;2023-03-05T12:06:50;98658.47;;;11.50;47.59
10587;BME280;5341;47.606;7.576;2023-03-05T12:09:24;98662.50;;;11.60;47.32
10587;BME280;5341;47.606;7.576;2023-03-05T12:11:56;98656.13;;;11.61;47.89
10587;BME280;5341;47.606;7.576;2023-03-05T12:14:33;98650.13;;;11.59;48.19
10587;BME280;5341;47.606;7.576;2023-03-05T12:17:08;98642.28;;;11.58;48.57
10587;BME280;5341;47.606;7.576;2023-03-05T12:19:46;98641.03;;;11.54;48.88
10587;BME280;5341;47.606;7.576;2023-03-05T12:22:19;98645.91;;;11.50;48.57
10587;BME280;5341;47.606;7.576;2023-03-05T12:24:48;98627.75;;;11.45;48.49
10587;BME280;5341;47.606;7.576;2023-03-05T12:27:31;98623.81;;;11.41;47.71
10587;BME280;5341;47.606;7.576;2023-03-05T12:29:59;98625.03;;;11.39;47.77
10587;BME280;5341;47.606;7.576;2023-03-05T12:32:57;98615.44;;;11.30;47.62
10587;BME280;5341;47.606;7.576;2023-03-05T12:35:32;98611.63;;;11.18;47.46
10587;BME280;5341;47.606;7.576;2023-03-05T12:44:19;98594.69;;;10.96;47.33
10587;BME280;5341;47.606;7.576;2023-03-05T12:47:16;98591.22;;;10.80;45.84
10587;BME280;5341;47.606;7.576;2023-03-05T12:49:48;98586.56;;;10.68;47.13
10587;BME280;5341;47.606;7.576;2023-03-05T12:52:29;98578.53;;;10.68;47.93
10587;BME280;5341;47.606;7.576;2023-03-05T12:55:03;98569.31;;;10.70;48.27
10587;BME280;5341;47.606;7.576;2023-03-05T12:57:42;98567.72;;;10.76;47.87
10587;BME280;5341;47.606;7.576;2023-03-05T13:00:14;98567.78;;;10.82;47.96
10587;BME280;5341;47.606;7.576;2023-03-05T13:02:47;98557.97;;;10.90;47.41
10587;BME280;5341;47.606;7.576;2023-03-05T13:05:20;98560.94;;;10.95;47.29
10587;BME280;5341;47.606;7.576;2023-03-05T13:07:51;98556.03;;;10.98;47.41
10587;BME280;5341;47.606;7.576;2023-03-05T13:10:23;98550.66;;;10.98;47.89
10587;BME280;5341;47.606;7.576;2023-03-05T13:12:52;98550.66;;;10.98;47.62
10587;BME280;5341;47.606;7.576;2023-03-05T13:15:21;98556.41;;;10.95;47.20
10587;BME280;5341;47.606;7.576;2023-03-05T13:17:54;98548.59;;;10.94;48.64
10587;BME280;5341;47.606;7.576;2023-03-05T13:20:32;98547.94;;;10.92;48.48
10587;BME280;5341;47.606;7.576;2023-03-05T13:23:13;98551.16;;;10.87;47.30
10587;BME280;5341;47.606;7.576;2023-03-05T13:25:41;98547.66;;;10.86;47.48
10587;BME280;5341;47.606;7.576;2023-03-05T13:28:11;98545.81;;;10.87;47.96
10587;BME280;5341;47.606;7.576;2023-03-05T13:30:44;98538.44;;;10.89;48.24
10587;BME280;5341;47.606;7.576;2023-03-05T13:33:18;98532.06;;;10.90;48.20
10587;BME280;5341;47.606;7.576;2023-03-05T13:35:47;98542.59;;;10.92;47.54
10587;BME280;5341;47.606;7.576;2023-03-05T13:38:32;98535.00;;;10.95;47.25
10587;BME280;5341;47.606;7.576;2023-03-05T13:41:17;98532.97;;;10.97;47.98
10587;BME280;5341;47.606;7.576;2023-03-05T13:43:47;98536.75;;;11.03;45.96
10587;BME280;5341;47.606;7.576;2023-03-05T13:46:26;98529.78;;;11.08;45.47
10587;BME280;5341;47.606;7.576;2023-03-05T13:48:54;98531.88;;;11.13;44.69
10587;BME280;5341;47.606;7.576;2023-03-05T13:51:22;98533.53;;;11.14;44.73
10587;BME280;5341;47.606;7.576;2023-03-05T13:53:52;98527.81;;;11.17;45.29
10587;BME280;5341;47.606;7.576;2023-03-05T13:56:20;98524.94;;;11.19;45.92
10587;BME280;5341;47.606;7.576;2023-03-05T13:58:50;98523.09;;;11.19;45.21
10587;BME280;5341;47.606;7.576;2023-03-05T14:01:28;98521.25;;;11.20;44.36
10587;BME280;5341;47.606;7.576;2023-03-05T14:03:58;98521.63;;;11.17;43.69
10587;BME280;5341;47.606;7.576;2023-03-05T14:06:28;98517.75;;;11.19;43.90
10587;BME280;5341;47.606;7.576;2023-03-05T14:09:03;98521.69;;;11.23;43.14
10587;BME280;5341;47.606;7.576;2023-03-05T14:11:33;98508.31;;;11.23;42.22
10587;BME280;5341;47.606;7.576;2023-03-05T14:14:12;98515.81;;;11.13;42.39
10587;BME280;5341;47.606;7.576;2023-03-05T14:16:42;98509.78;;;11.04;42.31
10587;BME280;5341;47.606;7.576;2023-03-05T14:19:30;98507.31;;;11.03;42.61
10587;BME280;5341;47.606;7.576;2023-03-05T14:22:00;98506.84;;;10.99;41.85